createdAt,value
2019-01-14T00:01:01.933Z,5.30
2019-01-14T00:03:31.219Z,5.20
2019-01-14T00:06:00.422Z,5.10
2019-01-14T00:08:30.312Z,5.10
2019-01-14T00:10:59.536Z,5.10
2019-01-14T00:13:28.736Z,5.00
2019-01-14T00:15:58.132Z,5.00
2019-01-14T00:18:27.336Z,5.00
2019-01-14T00:20:56.609Z,5.00
2019-01-14T00:23:25.740Z,4.90
2019-01-14T00:25:54.976Z,4.90
2019-01-14T00:28:24.163Z,4.90
2019-01-14T00:30:53.356Z,4.90
2019-01-14T00:33:22.581Z,4.80
2019-01-14T00:35:51.841Z,4.80
2019-01-14T00:38:21.086Z,4.80
2019-01-14T00:40:50.269Z,4.70
2019-01-14T00:43:19.479Z,4.70
2019-01-14T00:45:48.660Z,4.70
2019-01-14T00:48:17.888Z,4.70
2019-01-14T00:50:47.083Z,4.70
2019-01-14T00:53:16.290Z,4.70
2019-01-14T00:55:45.512Z,4.70
2019-01-14T00:58:14.710Z,4.70
2019-01-14T01:00:43.888Z,4.70
2019-01-14T01:03:13.116Z,4.70
2019-01-14T01:05:42.371Z,4.70
2019-01-14T01:08:11.516Z,4.70
2019-01-14T01:10:40.742Z,4.70
2019-01-14T01:13:10.017Z,4.60
2019-01-14T01:15:39.260Z,4.60
2019-01-14T01:18:08.475Z,4.60
2019-01-14T01:20:37.952Z,4.60
2019-01-14T01:23:07.144Z,4.60
2019-01-14T01:25:36.374Z,4.60
2019-01-14T01:28:05.644Z,4.60
2019-01-14T01:30:34.916Z,4.60
2019-01-14T01:33:04.144Z,4.60
2019-01-14T01:35:33.347Z,4.60
2019-01-14T01:38:02.637Z,4.60
2019-01-14T01:40:31.859Z,4.50
2019-01-14T01:43:01.052Z,4.50
2019-01-14T01:45:30.348Z,4.50
2019-01-14T01:47:59.560Z,4.50
2019-01-14T01:50:28.744Z,4.50
2019-01-14T01:52:57.956Z,4.50
2019-01-14T01:55:27.155Z,4.50
2019-01-14T01:57:56.344Z,4.50
2019-01-14T02:00:25.775Z,4.50
2019-01-14T02:02:55.048Z,4.50
2019-01-14T02:05:24.270Z,4.40
2019-01-14T02:07:53.472Z,4.40
2019-01-14T02:10:23.361Z,4.40
2019-01-14T02:12:52.707Z,4.40
2019-01-14T02:15:22.787Z,4.40
2019-01-14T02:17:52.386Z,4.40
2019-01-14T02:20:22.051Z,4.30
2019-01-14T02:22:51.224Z,4.30
2019-01-14T02:25:20.644Z,4.30
2019-01-14T02:27:49.835Z,4.30
2019-01-14T02:30:23.594Z,4.30
2019-01-14T02:32:52.762Z,4.20
2019-01-14T02:35:22.079Z,4.20
2019-01-14T02:37:51.304Z,4.20
2019-01-14T02:40:21.992Z,4.20
2019-01-14T02:42:51.176Z,4.20
2019-01-14T02:45:20.371Z,4.20
2019-01-14T02:47:49.608Z,4.20
2019-01-14T02:50:18.876Z,4.20
2019-01-14T02:52:48.103Z,4.20
2019-01-14T02:55:17.284Z,4.10
2019-01-14T02:57:46.498Z,4.10
2019-01-14T03:00:26.775Z,4.20
2019-01-14T03:02:55.976Z,4.20
2019-01-14T03:05:25.241Z,4.30
2019-01-14T03:07:54.431Z,4.30
2019-01-14T03:10:23.649Z,4.40
2019-01-14T03:12:52.859Z,4.40
2019-01-14T03:15:22.121Z,4.50
2019-01-14T03:17:51.353Z,4.50
2019-01-14T03:20:20.567Z,4.60
2019-01-14T03:22:49.769Z,4.60
2019-01-14T03:25:19.267Z,4.60
2019-01-14T03:27:48.454Z,4.60
2019-01-14T03:30:19.389Z,4.60
2019-01-14T03:32:48.619Z,4.70
2019-01-14T03:35:17.857Z,4.70
2019-01-14T03:37:47.053Z,4.60
2019-01-14T03:40:18.023Z,4.70
2019-01-14T03:42:47.323Z,4.70
2019-01-14T03:45:16.938Z,4.70
2019-01-14T03:47:46.242Z,4.60
2019-01-14T03:50:20.893Z,4.60
2019-01-14T03:52:50.222Z,4.50
2019-01-14T03:55:19.415Z,4.30
2019-01-14T03:57:48.649Z,4.20
2019-01-14T04:00:18.483Z,4.10
2019-01-14T04:02:47.675Z,4.00
2019-01-14T04:05:16.951Z,4.00
2019-01-14T04:07:46.212Z,4.00
2019-01-14T04:10:16.756Z,4.00
2019-01-14T04:12:46.089Z,4.00
2019-01-14T04:15:17.124Z,4.00
2019-01-14T04:17:46.405Z,4.00
2019-01-14T04:20:16.769Z,4.00
2019-01-14T04:22:46.072Z,4.00
2019-01-14T04:25:15.569Z,4.00
2019-01-14T04:27:44.787Z,4.00
2019-01-14T04:30:19.668Z,4.00
2019-01-14T04:32:49.054Z,4.00
2019-01-14T04:35:18.833Z,3.90
2019-01-14T04:37:48.181Z,3.80
2019-01-14T04:40:17.379Z,3.80
2019-01-14T04:42:46.756Z,3.70
2019-01-14T04:45:16.017Z,3.70
2019-01-14T04:47:45.216Z,3.70
2019-01-14T04:50:17.048Z,3.60
2019-01-14T04:52:46.332Z,3.60
2019-01-14T04:55:15.646Z,3.60
2019-01-14T04:57:44.926Z,3.60
2019-01-14T05:00:19.540Z,3.60
2019-01-14T05:02:48.732Z,3.70
2019-01-14T05:05:17.938Z,3.70
2019-01-14T05:07:47.245Z,3.70
2019-01-14T05:10:17.083Z,3.70
2019-01-14T05:12:46.267Z,3.70
2019-01-14T05:15:15.518Z,3.70
2019-01-14T05:17:44.720Z,3.70
2019-01-14T05:20:24.913Z,3.70
2019-01-14T05:22:54.889Z,3.70
2019-01-14T05:25:24.328Z,3.70
2019-01-14T05:27:53.552Z,3.60
2019-01-14T05:30:22.768Z,3.60
2019-01-14T05:32:52.117Z,3.60
2019-01-14T05:35:21.339Z,3.60
2019-01-14T05:37:50.556Z,3.70
2019-01-14T05:40:21.966Z,3.60
2019-01-14T05:42:51.190Z,3.60
2019-01-14T05:45:20.665Z,3.60
2019-01-14T05:47:49.908Z,3.60
2019-01-14T05:50:19.225Z,3.50
2019-01-14T05:52:48.487Z,3.50
2019-01-14T05:55:18.100Z,3.50
2019-01-14T05:57:47.357Z,3.50
2019-01-14T06:00:48.207Z,3.50
2019-01-14T06:03:17.669Z,3.50
2019-01-14T06:05:46.915Z,3.60
2019-01-14T06:08:16.141Z,3.60
2019-01-14T06:10:45.399Z,3.70
2019-01-14T06:13:14.612Z,3.70
2019-01-14T06:15:43.826Z,3.80
2019-01-14T06:18:13.152Z,3.70
2019-01-14T06:20:42.538Z,3.70
2019-01-14T06:23:11.823Z,3.80
2019-01-14T06:25:41.172Z,3.80
2019-01-14T06:28:10.456Z,3.70
2019-01-14T06:30:39.761Z,3.70
2019-01-14T06:33:09.359Z,3.70
2019-01-14T06:35:38.786Z,3.70
2019-01-14T06:38:07.995Z,3.70
2019-01-14T06:40:37.324Z,3.70
2019-01-14T06:43:06.536Z,3.70
2019-01-14T06:45:35.924Z,3.60
2019-01-14T06:48:05.548Z,3.60
2019-01-14T06:50:34.800Z,3.60
2019-01-14T06:53:04.509Z,3.60
2019-01-14T06:55:33.683Z,3.60
2019-01-14T06:58:02.937Z,3.60
2019-01-14T07:00:32.157Z,3.50
2019-01-14T07:03:01.781Z,3.50
2019-01-14T07:05:31.184Z,3.50
2019-01-14T07:08:00.412Z,3.50
2019-01-14T07:10:31.160Z,3.50
2019-01-14T07:13:00.500Z,3.50
2019-01-14T07:15:29.800Z,3.50
2019-01-14T07:17:59.081Z,3.40
2019-01-14T07:20:28.493Z,3.40
2019-01-14T07:22:57.732Z,3.30
2019-01-14T07:25:26.960Z,3.40
2019-01-14T07:27:56.160Z,3.40
2019-01-14T07:30:25.749Z,3.40
2019-01-14T07:32:55.013Z,3.40
2019-01-14T07:35:24.301Z,3.30
2019-01-14T07:37:53.525Z,3.30
2019-01-14T07:40:22.803Z,3.30
2019-01-14T07:42:52.105Z,3.30
2019-01-14T07:45:21.396Z,3.20
2019-01-14T07:47:50.680Z,3.20
2019-01-14T07:50:20.573Z,3.20
2019-01-14T07:52:49.981Z,3.10
2019-01-14T07:55:19.251Z,3.10
2019-01-14T07:57:48.665Z,3.10
2019-01-14T08:00:25.515Z,3.10
2019-01-14T08:02:54.869Z,3.10
2019-01-14T08:05:24.257Z,3.10
2019-01-14T08:07:53.684Z,3.10
2019-01-14T08:10:22.914Z,3.00
2019-01-14T08:12:52.196Z,3.00
2019-01-14T08:15:22.589Z,3.00
2019-01-14T08:17:51.897Z,3.00
2019-01-14T08:20:21.208Z,3.00
2019-01-14T08:22:50.476Z,3.00
2019-01-14T08:25:19.715Z,3.10
2019-01-14T08:27:48.936Z,3.20
2019-01-14T08:30:27.086Z,3.40
2019-01-14T08:32:56.321Z,3.60
2019-01-14T08:35:25.636Z,3.60
2019-01-14T08:37:54.834Z,3.50
2019-01-14T08:40:24.082Z,3.30
2019-01-14T08:42:53.276Z,3.10
2019-01-14T08:45:23.366Z,2.90
2019-01-14T08:47:52.556Z,2.80
2019-01-14T08:50:22.206Z,2.80
2019-01-14T08:52:51.894Z,2.80
2019-01-14T08:55:21.191Z,2.90
2019-01-14T08:57:54.461Z,3.00
2019-01-14T09:00:22.817Z,3.10
2019-01-14T09:02:52.019Z,3.10
2019-01-14T09:05:21.403Z,3.30
2019-01-14T09:07:50.622Z,3.40
2019-01-14T09:10:22.655Z,3.70
2019-01-14T09:12:51.986Z,4.10
2019-01-14T09:15:21.210Z,4.50
2019-01-14T09:17:50.627Z,4.50
2019-01-14T09:20:21.740Z,4.40
2019-01-14T09:22:51.342Z,4.30
2019-01-14T09:25:20.647Z,4.30
2019-01-14T09:27:49.875Z,4.40
2019-01-14T09:30:24.042Z,4.40
2019-01-14T09:32:53.813Z,4.20
2019-01-14T09:35:23.065Z,4.20
2019-01-14T09:37:52.300Z,4.10
2019-01-14T09:40:23.202Z,4.50
2019-01-14T09:42:52.489Z,4.90
2019-01-14T09:45:21.712Z,4.90
2019-01-14T09:47:50.975Z,4.70
2019-01-14T09:50:20.259Z,4.50
2019-01-14T09:52:49.543Z,4.30
2019-01-14T09:55:19.644Z,4.20
2019-01-14T09:57:48.951Z,4.20
2019-01-14T10:00:18.268Z,4.20
2019-01-14T10:02:47.624Z,4.20
2019-01-14T10:05:18.579Z,4.20
2019-01-14T10:07:48.084Z,4.30
2019-01-14T10:10:18.584Z,4.30
2019-01-14T10:12:47.966Z,4.40
2019-01-14T10:15:22.227Z,4.50
2019-01-14T10:18:10.520Z,4.60
2019-01-14T10:20:39.720Z,4.60
2019-01-14T10:23:08.964Z,4.60
2019-01-14T10:25:38.214Z,4.40
2019-01-14T10:28:07.377Z,4.20
2019-01-14T10:30:36.945Z,3.90
2019-01-14T10:33:06.264Z,3.50
2019-01-14T10:35:35.585Z,3.30
2019-01-14T10:38:04.848Z,3.00
2019-01-14T10:40:34.125Z,2.90
2019-01-14T10:43:03.320Z,2.90
2019-01-14T10:45:33.206Z,3.00
2019-01-14T10:48:02.449Z,3.20
2019-01-14T10:50:32.034Z,3.20
2019-01-14T10:53:01.264Z,3.30
2019-01-14T10:55:30.502Z,3.30
2019-01-14T10:57:59.720Z,3.40
2019-01-14T11:00:30.212Z,3.40
2019-01-14T11:03:00.192Z,3.40
2019-01-14T11:05:31.245Z,3.40
2019-01-14T11:08:00.771Z,3.50
2019-01-14T11:10:29.987Z,3.70
2019-01-14T11:12:59.284Z,3.90
2019-01-14T11:15:28.564Z,4.00
2019-01-14T11:17:57.931Z,4.00
2019-01-14T11:20:29.119Z,4.00
2019-01-14T11:22:58.735Z,4.00
2019-01-14T11:25:28.213Z,4.00
2019-01-14T11:27:57.809Z,4.00
2019-01-14T11:30:33.029Z,4.00
2019-01-14T11:33:02.264Z,4.00
2019-01-14T11:35:31.464Z,4.00
2019-01-14T11:38:00.662Z,4.10
2019-01-14T11:40:38.544Z,4.20
2019-01-14T11:43:08.028Z,4.30
2019-01-14T11:45:37.376Z,4.40
2019-01-14T11:48:07.256Z,4.50
2019-01-14T11:50:36.484Z,4.60
2019-01-14T11:53:05.821Z,4.60
2019-01-14T11:55:35.076Z,4.60
2019-01-14T11:58:04.341Z,4.50
2019-01-14T12:00:36.883Z,4.50
2019-01-14T12:03:04.433Z,4.50
2019-01-14T12:05:34.542Z,4.40
2019-01-14T12:08:03.748Z,4.40
2019-01-14T12:10:33.124Z,4.40
2019-01-14T12:13:02.416Z,4.50
2019-01-14T12:15:32.132Z,4.50
2019-01-14T12:18:01.353Z,4.40
2019-01-14T12:20:30.588Z,4.40
2019-01-14T12:22:59.820Z,4.40
2019-01-14T12:25:29.029Z,4.30
2019-01-14T12:27:58.377Z,4.30
2019-01-14T12:30:36.077Z,4.30
2019-01-14T12:33:06.042Z,4.20
2019-01-14T12:35:35.238Z,4.10
2019-01-14T12:38:04.701Z,4.10
2019-01-14T12:40:34.047Z,4.00
2019-01-14T12:43:03.354Z,3.90
2019-01-14T12:45:32.557Z,3.90
2019-01-14T12:48:02.225Z,4.00
2019-01-14T12:50:31.544Z,4.00
2019-01-14T12:53:00.789Z,4.00
2019-01-14T12:55:29.984Z,3.90
2019-01-14T12:57:59.211Z,3.90
2019-01-14T13:00:29.698Z,3.90
2019-01-14T13:02:58.983Z,3.80
2019-01-14T13:05:29.859Z,3.80
2019-01-14T13:08:00.187Z,3.80
2019-01-14T13:10:29.492Z,3.70
2019-01-14T13:12:58.800Z,3.70
2019-01-14T13:15:28.880Z,3.80
2019-01-14T13:17:58.068Z,3.80
2019-01-14T13:20:27.384Z,3.90
2019-01-14T13:22:56.657Z,3.90
2019-01-14T13:25:26.200Z,3.90
2019-01-14T13:27:55.412Z,4.00
2019-01-14T13:30:26.700Z,4.10
2019-01-14T13:32:56.072Z,4.10
2019-01-14T13:35:25.312Z,4.00
2019-01-14T13:37:54.536Z,4.00
2019-01-14T13:40:23.823Z,4.00
2019-01-14T13:42:53.028Z,3.90
2019-01-14T13:45:22.377Z,3.90
2019-01-14T13:47:52.073Z,3.90
2019-01-14T13:50:23.275Z,3.90
2019-01-14T13:52:52.472Z,3.80
2019-01-14T13:55:22.136Z,3.80
2019-01-14T13:57:52.373Z,3.80
2019-01-14T14:00:23.517Z,3.80
2019-01-14T14:02:53.048Z,3.80
2019-01-14T14:05:22.357Z,3.70
2019-01-14T14:07:51.591Z,3.70
2019-01-14T14:10:26.084Z,3.70
2019-01-14T14:12:55.334Z,3.70
2019-01-14T14:15:24.664Z,3.60
2019-01-14T14:17:53.932Z,3.60
2019-01-14T14:20:23.147Z,3.60
2019-01-14T14:22:52.424Z,3.60
2019-01-14T14:25:21.688Z,3.60
2019-01-14T14:27:50.916Z,3.50
2019-01-14T14:30:25.985Z,3.50
2019-01-14T14:32:55.216Z,3.50
2019-01-14T14:35:24.578Z,3.50
2019-01-14T14:38:00.646Z,3.50
2019-01-14T14:40:24.633Z,3.50
2019-01-14T14:42:54.527Z,3.40
2019-01-14T14:45:23.828Z,3.40
2019-01-14T14:47:53.025Z,3.40
2019-01-14T14:50:22.289Z,3.40
2019-01-14T14:52:51.536Z,3.40
2019-01-14T14:55:20.768Z,3.40
2019-01-14T14:57:50.055Z,3.40
2019-01-14T15:00:20.765Z,3.40
2019-01-14T15:02:50.081Z,3.30
2019-01-14T15:05:19.495Z,3.30
2019-01-14T15:07:48.802Z,3.30
2019-01-14T15:10:19.765Z,3.20
2019-01-14T15:12:49.051Z,3.20
2019-01-14T15:15:19.861Z,3.20
2019-01-14T15:17:49.050Z,3.10
2019-01-14T15:20:19.268Z,3.10
2019-01-14T15:22:48.637Z,3.00
2019-01-14T15:25:17.911Z,3.00
2019-01-14T15:27:47.117Z,3.00
2019-01-14T15:30:27.977Z,2.90
2019-01-14T15:32:57.211Z,2.90
2019-01-14T15:35:26.549Z,2.80
2019-01-14T15:37:55.759Z,2.80
2019-01-14T15:40:25.782Z,2.80
2019-01-14T15:42:54.979Z,2.70
2019-01-14T15:45:25.577Z,2.70
2019-01-14T15:47:54.837Z,2.70
2019-01-14T15:50:24.047Z,2.70
2019-01-14T15:52:53.304Z,2.70
2019-01-14T15:55:24.929Z,2.80
2019-01-14T15:57:54.125Z,2.90
2019-01-14T16:00:23.410Z,2.90
2019-01-14T16:02:53.136Z,2.90
2019-01-14T16:05:23.079Z,2.90
2019-01-14T16:07:52.714Z,2.90
2019-01-14T16:10:24.969Z,2.80
2019-01-14T16:12:55.131Z,2.80
2019-01-14T16:15:25.171Z,2.80
2019-01-14T16:17:55.096Z,2.80
2019-01-14T16:20:26.331Z,2.80
2019-01-14T16:22:55.715Z,2.70
2019-01-14T16:25:25.636Z,2.70
2019-01-14T16:27:56.205Z,2.70
2019-01-14T16:30:29.388Z,2.60
2019-01-14T16:32:59.200Z,2.60
2019-01-14T16:35:31.276Z,2.60
2019-01-14T16:38:00.937Z,2.60
2019-01-14T16:40:30.938Z,2.60
2019-01-14T16:43:00.906Z,2.50
2019-01-14T16:45:30.700Z,2.50
2019-01-14T16:47:59.914Z,2.50
2019-01-14T16:50:29.482Z,2.50
2019-01-14T16:52:59.221Z,2.50
2019-01-14T16:55:48.056Z,2.50
2019-01-14T16:58:17.920Z,2.50
2019-01-14T17:00:47.546Z,2.50
2019-01-14T17:03:17.441Z,2.50
2019-01-14T17:05:47.161Z,2.50
2019-01-14T17:08:16.781Z,2.50
2019-01-14T17:10:46.608Z,2.50
2019-01-14T17:13:16.404Z,2.60
2019-01-14T17:15:45.991Z,2.60
2019-01-14T17:18:16.064Z,2.60
2019-01-14T17:20:46.239Z,2.60
2019-01-14T17:23:16.221Z,2.60
2019-01-14T17:25:46.572Z,2.60
2019-01-14T17:28:16.444Z,2.70
2019-01-14T17:30:46.014Z,2.80
2019-01-14T17:33:16.029Z,2.80
2019-01-14T17:35:46.153Z,2.90
2019-01-14T17:38:15.820Z,2.90
2019-01-14T17:40:45.432Z,3.00
2019-01-14T17:43:15.112Z,3.00
2019-01-14T17:45:45.064Z,3.00
2019-01-14T17:48:14.490Z,3.10
2019-01-14T17:50:43.698Z,3.10
2019-01-14T17:53:12.911Z,3.10
2019-01-14T17:55:42.145Z,3.10
2019-01-14T17:58:11.412Z,3.00
2019-01-14T18:00:40.726Z,3.00
2019-01-14T18:03:09.942Z,2.90
2019-01-14T18:05:39.177Z,2.90
2019-01-14T18:08:08.564Z,2.90
2019-01-14T18:10:40.250Z,2.90
2019-01-14T18:13:08.725Z,3.00
2019-01-14T18:15:38.025Z,3.00
2019-01-14T18:18:07.309Z,3.10
2019-01-14T18:20:36.590Z,3.10
2019-01-14T18:23:05.980Z,3.10
2019-01-14T18:25:35.184Z,3.10
2019-01-14T18:28:04.420Z,3.10
2019-01-14T18:30:33.665Z,3.10
2019-01-14T18:33:03.105Z,3.10
2019-01-14T18:35:32.401Z,3.10
2019-01-14T18:38:01.680Z,3.00
2019-01-14T18:40:34.078Z,3.00
2019-01-14T18:43:01.949Z,2.90
2019-01-14T18:45:31.172Z,2.90
2019-01-14T18:48:00.447Z,2.90
2019-01-14T18:50:29.681Z,2.80
2019-01-14T18:52:58.946Z,2.80
2019-01-14T18:55:28.195Z,2.70
2019-01-14T18:57:57.422Z,2.70
2019-01-14T19:00:26.696Z,2.70
2019-01-14T19:02:55.911Z,2.70
2019-01-14T19:05:25.183Z,2.80
2019-01-14T19:07:54.392Z,2.80
2019-01-14T19:10:23.699Z,2.90
2019-01-14T19:12:52.984Z,2.90
2019-01-14T19:15:22.313Z,2.90
2019-01-14T19:17:52.846Z,3.00
2019-01-14T19:20:24.505Z,3.00
2019-01-14T19:22:53.719Z,3.00
2019-01-14T19:25:22.937Z,3.00
2019-01-14T19:27:52.176Z,3.00
2019-01-14T19:30:21.590Z,3.10
2019-01-14T19:32:50.841Z,3.10
2019-01-14T19:35:20.073Z,3.10
2019-01-14T19:37:49.280Z,3.10
2019-01-14T19:40:20.111Z,3.10
2019-01-14T19:42:49.859Z,3.10
2019-01-14T19:45:20.500Z,3.20
2019-01-14T19:47:50.012Z,3.20
2019-01-14T19:50:21.381Z,3.20
2019-01-14T19:52:50.527Z,3.20
2019-01-14T19:55:19.755Z,3.30
2019-01-14T19:57:50.121Z,3.30
2019-01-14T20:00:28.387Z,3.30
2019-01-14T20:02:57.831Z,3.40
2019-01-14T20:05:27.140Z,3.40
2019-01-14T20:07:56.556Z,3.40
2019-01-14T20:10:25.772Z,3.50
2019-01-14T20:12:55.861Z,3.50
2019-01-14T20:15:25.198Z,3.50
2019-01-14T20:17:54.383Z,3.50
2019-01-14T20:20:23.596Z,3.50
2019-01-14T20:22:52.899Z,3.50
2019-01-14T20:25:22.195Z,3.50
2019-01-14T20:27:51.392Z,3.40
2019-01-14T20:30:22.579Z,3.40
2019-01-14T20:32:51.901Z,3.40
2019-01-14T20:35:21.141Z,3.40
2019-01-14T20:37:50.340Z,3.40
2019-01-14T20:40:19.595Z,3.40
2019-01-14T20:42:48.887Z,3.50
2019-01-14T20:45:18.132Z,3.50
2019-01-14T20:47:47.408Z,3.50
2019-01-14T20:50:18.504Z,3.60
2019-01-14T20:52:47.735Z,3.60
2019-01-14T20:55:16.949Z,3.60
2019-01-14T20:57:46.169Z,3.70
2019-01-14T21:00:18.356Z,3.70
2019-01-14T21:02:47.667Z,3.70
2019-01-14T21:05:17.659Z,3.80
2019-01-14T21:07:46.880Z,3.80
2019-01-14T21:10:16.535Z,3.80
2019-01-14T21:12:45.736Z,3.80
2019-01-14T21:15:15.249Z,3.90
2019-01-14T21:17:44.493Z,3.80
2019-01-14T21:20:16.624Z,3.80
2019-01-14T21:22:45.909Z,3.70
2019-01-14T21:25:15.160Z,3.70
2019-01-14T21:27:44.375Z,3.60
2019-01-14T21:30:18.876Z,3.60
2019-01-14T21:32:48.104Z,3.60
2019-01-14T21:35:17.413Z,3.50
2019-01-14T21:37:46.749Z,3.60
2019-01-14T21:40:16.133Z,3.60
2019-01-14T21:42:45.372Z,3.60
2019-01-14T21:45:14.940Z,3.60
2019-01-14T21:47:44.208Z,3.60
2019-01-14T21:50:15.641Z,3.60
2019-01-14T21:52:44.849Z,3.60
2019-01-14T21:55:16.404Z,3.60
2019-01-14T21:57:47.021Z,3.60
2019-01-14T22:00:18.648Z,3.60
2019-01-14T22:02:47.848Z,3.60
2019-01-14T22:05:17.112Z,3.60
2019-01-14T22:07:46.285Z,3.70
2019-01-14T22:10:23.757Z,3.70
2019-01-14T22:12:52.940Z,3.70
2019-01-14T22:15:22.148Z,3.70
2019-01-14T22:17:51.360Z,3.70
2019-01-14T22:20:22.743Z,3.80
2019-01-14T22:22:52.137Z,3.80
2019-01-14T22:25:21.358Z,3.80
2019-01-14T22:27:50.608Z,3.80
2019-01-14T22:30:22.399Z,3.90
2019-01-14T22:32:51.664Z,3.90
2019-01-14T22:35:20.926Z,3.90
2019-01-14T22:37:50.089Z,4.00
2019-01-14T22:40:19.299Z,4.00
2019-01-14T22:42:48.524Z,4.00
2019-01-14T22:45:17.805Z,4.00
2019-01-14T22:47:47.039Z,4.00
2019-01-14T22:50:16.888Z,4.10
2019-01-14T22:52:46.097Z,4.10
2019-01-14T22:55:15.356Z,4.10
2019-01-14T22:57:44.552Z,4.10
2019-01-14T23:01:14.251Z,4.10
2019-01-14T23:03:51.764Z,4.20
2019-01-14T23:06:20.992Z,4.20
2019-01-14T23:08:50.286Z,4.20
2019-01-14T23:11:19.501Z,4.20
2019-01-14T23:13:48.730Z,4.20
2019-01-14T23:16:17.957Z,4.20
2019-01-14T23:18:47.195Z,4.20
2019-01-14T23:21:16.383Z,4.20
2019-01-14T23:23:45.626Z,4.30
2019-01-14T23:26:14.925Z,4.30
2019-01-14T23:28:44.136Z,4.20
2019-01-14T23:31:13.473Z,4.20
2019-01-14T23:33:42.700Z,4.20
2019-01-14T23:36:12.002Z,4.30
2019-01-14T23:38:41.214Z,4.30
2019-01-14T23:41:10.434Z,4.30
2019-01-14T23:43:39.762Z,4.30
2019-01-14T23:46:09.060Z,4.30
2019-01-14T23:48:38.365Z,4.30
2019-01-14T23:51:07.644Z,4.30
2019-01-14T23:53:36.872Z,4.30
2019-01-14T23:56:06.199Z,4.30
2019-01-14T23:58:35.424Z,4.30
